createdAt,value
2022-10-09T00:04:47.088Z,23.60
2022-10-09T00:09:50.355Z,23.50
2022-10-09T00:14:55.016Z,23.50
2022-10-09T00:19:58.396Z,23.50
2022-10-09T00:25:01.753Z,23.50
2022-10-09T00:30:07.474Z,23.50
2022-10-09T00:35:11.015Z,23.40
2022-10-09T00:40:14.370Z,23.40
2022-10-09T00:45:22.311Z,23.40
2022-10-09T00:50:29.314Z,23.40
2022-10-09T00:55:35.706Z,23.40
2022-10-09T01:00:40.506Z,23.30
2022-10-09T01:05:51.021Z,23.30
2022-10-09T01:11:01.270Z,23.30
2022-10-09T01:16:10.789Z,23.20
2022-10-09T01:21:19.332Z,23.10
2022-10-09T01:26:33.920Z,23.10
2022-10-09T01:31:43.111Z,23.10
2022-10-09T01:36:47.418Z,23.10
2022-10-09T01:41:52.652Z,23.00
2022-10-09T01:46:57.709Z,23.00
2022-10-09T01:52:06.754Z,22.90
2022-10-09T01:57:13.863Z,22.80
2022-10-09T02:02:20.655Z,22.80
2022-10-09T02:07:25.317Z,22.70
2022-10-09T02:12:30.837Z,22.60
2022-10-09T02:17:38.697Z,22.50
2022-10-09T02:22:42.779Z,22.40
2022-10-09T02:27:46.974Z,22.40
2022-10-09T02:32:55.183Z,22.40
2022-10-09T02:37:58.625Z,22.30
2022-10-09T02:43:02.041Z,22.30
2022-10-09T02:48:06.686Z,22.20
2022-10-09T02:53:09.976Z,22.00
2022-10-09T02:58:13.655Z,22.00
2022-10-09T03:03:18.350Z,21.90
2022-10-09T03:08:21.614Z,21.80
2022-10-09T03:13:25.040Z,21.80
2022-10-09T03:18:29.674Z,21.70
2022-10-09T03:23:33.089Z,21.70
2022-10-09T03:28:37.751Z,21.60
2022-10-09T03:33:42.693Z,21.60
2022-10-09T03:38:45.982Z,21.60
2022-10-09T03:43:49.260Z,21.50
2022-10-09T03:48:53.826Z,21.50
2022-10-09T03:53:57.029Z,21.40
2022-10-09T03:59:00.365Z,21.30
2022-10-09T04:04:05.109Z,21.30
2022-10-09T04:09:08.489Z,21.20
2022-10-09T04:14:11.878Z,21.20
2022-10-09T04:19:16.823Z,21.10
2022-10-09T04:24:20.064Z,21.10
2022-10-09T04:29:23.317Z,21.00
2022-10-09T04:34:28.123Z,21.00
2022-10-09T04:39:31.489Z,20.90
2022-10-09T04:44:34.739Z,20.90
2022-10-09T04:49:39.869Z,20.80
2022-10-09T04:54:43.147Z,20.80
2022-10-09T04:59:46.434Z,20.70
2022-10-09T05:04:51.444Z,20.70
2022-10-09T05:09:55.463Z,20.60
2022-10-09T05:14:58.902Z,20.60
2022-10-09T05:20:03.541Z,20.60
2022-10-09T05:25:08.258Z,20.50
2022-10-09T05:30:12.545Z,20.50
2022-10-09T05:35:17.396Z,20.50
2022-10-09T05:40:20.600Z,20.40
2022-10-09T05:45:24.311Z,20.40
2022-10-09T05:50:29.011Z,20.40
2022-10-09T05:55:32.253Z,20.40
2022-10-09T06:00:35.559Z,20.30
2022-10-09T06:05:40.465Z,20.20
2022-10-09T06:10:43.718Z,20.20
2022-10-09T06:15:53.424Z,20.20
2022-10-09T06:20:59.705Z,20.10
2022-10-09T06:26:06.630Z,20.10
2022-10-09T06:31:12.205Z,20.10
2022-10-09T06:36:18.809Z,20.10
2022-10-09T06:41:23.713Z,20.10
2022-10-09T06:46:29.442Z,20.10
2022-10-09T06:51:35.182Z,20.10
2022-10-09T06:56:38.744Z,20.10
2022-10-09T07:01:42.476Z,20.10
2022-10-09T07:06:48.261Z,20.10
2022-10-09T07:11:51.514Z,20.20
2022-10-09T07:16:55.193Z,20.20
2022-10-09T07:21:59.891Z,20.20
2022-10-09T07:27:03.206Z,20.20
2022-10-09T07:32:10.307Z,20.30
2022-10-09T07:37:15.504Z,20.30
2022-10-09T07:42:18.823Z,20.30
2022-10-09T07:47:22.114Z,20.30
2022-10-09T07:52:26.833Z,20.30
2022-10-09T07:57:30.065Z,20.40
2022-10-09T08:02:33.537Z,20.40
2022-10-09T08:07:38.286Z,20.50
2022-10-09T08:12:41.556Z,20.60
2022-10-09T08:17:44.810Z,20.60
2022-10-09T08:22:49.588Z,20.70
2022-10-09T08:27:54.129Z,20.80
2022-10-09T08:32:57.476Z,20.90
2022-10-09T08:38:02.178Z,21.00
2022-10-09T08:43:07.651Z,21.10
2022-10-09T08:48:17.074Z,21.20
2022-10-09T08:53:34.750Z,21.30
2022-10-09T08:58:40.922Z,21.40
2022-10-09T09:03:57.241Z,21.50
2022-10-09T09:09:08.669Z,21.70
2022-10-09T09:14:27.569Z,21.80
2022-10-09T09:19:45.810Z,22.00
2022-10-09T09:24:54.345Z,22.10
2022-10-09T09:30:01.857Z,22.30
2022-10-09T09:35:17.252Z,22.50
2022-10-09T09:40:36.329Z,22.70
2022-10-09T09:45:40.814Z,22.90
2022-10-09T09:50:59.957Z,23.00
2022-10-09T09:56:11.067Z,23.20
2022-10-09T10:01:23.216Z,23.40
2022-10-09T10:06:31.175Z,23.70
2022-10-09T10:11:36.132Z,23.90
2022-10-09T10:16:40.278Z,24.20
2022-10-09T10:21:49.232Z,24.40
2022-10-09T10:26:59.878Z,24.60
2022-10-09T10:32:09.228Z,24.80
2022-10-09T10:37:27.153Z,25.00
2022-10-09T10:42:41.885Z,25.20
2022-10-09T10:47:50.940Z,25.30
2022-10-09T10:53:07.812Z,25.50
2022-10-09T10:58:24.785Z,25.60
2022-10-09T11:03:45.247Z,25.80
2022-10-09T11:09:04.075Z,25.90
2022-10-09T11:14:20.808Z,26.10
2022-10-09T11:19:49.300Z,26.20
2022-10-09T11:25:15.430Z,26.30
2022-10-09T11:30:20.763Z,26.40
2022-10-09T11:35:25.351Z,26.50
2022-10-09T11:40:33.356Z,26.60
2022-10-09T11:45:44.679Z,26.60
2022-10-09T11:50:55.234Z,26.70
2022-10-09T11:56:06.180Z,26.70
2022-10-09T12:01:22.931Z,26.70
2022-10-09T12:06:26.259Z,26.80
2022-10-09T12:11:30.603Z,26.80
2022-10-09T12:16:41.965Z,26.70
2022-10-09T12:21:51.939Z,26.70
2022-10-09T12:26:57.532Z,26.70
2022-10-09T12:32:06.444Z,26.60
2022-10-09T12:37:15.192Z,26.50
2022-10-09T12:42:22.328Z,26.40
2022-10-09T12:47:30.273Z,26.30
2022-10-09T12:52:33.977Z,26.10
2022-10-09T12:57:46.321Z,26.00
2022-10-09T13:02:51.227Z,25.80
2022-10-09T13:07:55.986Z,25.70
2022-10-09T13:13:00.316Z,25.60
2022-10-09T13:18:20.862Z,25.40
2022-10-09T13:23:30.200Z,25.20
2022-10-09T13:28:33.593Z,25.10
2022-10-09T13:33:39.334Z,25.00
2022-10-09T13:38:42.971Z,24.80
2022-10-09T13:43:46.475Z,24.80
2022-10-09T13:48:51.044Z,24.80
2022-10-09T13:53:54.688Z,25.00
2022-10-09T13:58:57.959Z,25.20
2022-10-09T14:04:03.086Z,25.40
2022-10-09T14:09:07.529Z,25.60
2022-10-09T14:14:11.137Z,25.80
2022-10-09T14:19:15.844Z,25.90
2022-10-09T14:24:19.729Z,25.90
2022-10-09T14:29:23.068Z,25.80
2022-10-09T14:34:27.703Z,25.60
2022-10-09T14:39:31.140Z,25.50
2022-10-09T14:44:34.587Z,25.40
2022-10-09T14:49:39.151Z,25.30
2022-10-09T14:54:42.406Z,25.10
2022-10-09T14:59:45.606Z,24.90
2022-10-09T15:04:50.203Z,24.80
2022-10-09T15:09:54.860Z,24.60
2022-10-09T15:14:58.064Z,24.60
2022-10-09T15:20:02.810Z,24.50
2022-10-09T15:25:06.597Z,24.40
2022-10-09T15:30:11.412Z,24.20
2022-10-09T15:35:16.249Z,24.10
2022-10-09T15:40:19.464Z,24.00
2022-10-09T15:45:22.828Z,23.90
2022-10-09T15:50:27.555Z,23.80
2022-10-09T15:55:31.124Z,23.70
2022-10-09T16:00:38.979Z,23.70
2022-10-09T16:05:47.107Z,23.70
2022-10-09T16:10:52.154Z,23.50
2022-10-09T16:15:55.462Z,23.50
2022-10-09T16:21:05.518Z,23.40
2022-10-09T16:26:08.912Z,23.40
2022-10-09T16:31:19.558Z,23.30
2022-10-09T16:36:24.807Z,23.30
2022-10-09T16:41:28.271Z,23.20
2022-10-09T16:51:38.128Z,23.10
2022-10-09T16:56:42.455Z,23.10
2022-10-09T17:01:47.740Z,23.00
2022-10-09T17:06:53.703Z,23.00
2022-10-09T17:11:57.587Z,22.90
2022-10-09T17:17:00.896Z,22.90
2022-10-09T17:22:06.474Z,22.80
2022-10-09T17:27:10.691Z,22.80
2022-10-09T17:32:14.847Z,22.70
2022-10-09T17:37:21.358Z,22.70
2022-10-09T17:42:25.516Z,22.60
2022-10-09T17:47:30.087Z,22.60
2022-10-09T17:52:34.752Z,22.50
2022-10-09T17:57:38.376Z,22.50
2022-10-09T18:02:42.165Z,22.40
2022-10-09T18:07:48.445Z,22.40
2022-10-09T18:12:52.793Z,22.30
2022-10-09T18:17:57.566Z,22.00
2022-10-09T18:23:02.764Z,22.30
2022-10-09T18:28:06.752Z,22.40
2022-10-09T18:33:11.166Z,22.50
2022-10-09T18:38:17.793Z,22.50
2022-10-09T18:43:22.017Z,22.50
2022-10-09T18:48:26.433Z,22.40
2022-10-09T18:53:34.918Z,22.40
2022-10-09T18:58:41.680Z,22.30
2022-10-09T19:03:49.073Z,22.10
2022-10-09T19:08:58.040Z,22.10
2022-10-09T19:14:02.385Z,22.00
2022-10-09T19:19:06.584Z,21.90
2022-10-09T19:24:12.423Z,21.80
2022-10-09T19:29:16.267Z,21.80
2022-10-09T19:34:20.314Z,21.70
2022-10-09T19:39:25.009Z,21.60
2022-10-09T19:44:29.427Z,21.60
2022-10-09T19:49:33.287Z,21.50
2022-10-09T19:54:40.224Z,21.50
2022-10-09T19:59:44.088Z,21.40
2022-10-09T20:04:49.480Z,21.40
2022-10-09T20:09:54.124Z,21.30
2022-10-09T20:14:57.381Z,21.20
2022-10-09T20:20:00.976Z,21.20
2022-10-09T20:25:06.558Z,21.10
2022-10-09T20:30:10.662Z,21.10
2022-10-09T20:35:13.939Z,21.00
2022-10-09T20:40:18.895Z,21.00
2022-10-09T20:45:22.714Z,20.90
2022-10-09T20:50:26.015Z,20.90
2022-10-09T20:55:32.585Z,20.80
2022-10-09T21:00:35.897Z,20.80
2022-10-09T21:05:43.695Z,20.70
2022-10-09T21:10:49.828Z,20.60
2022-10-09T21:15:53.248Z,20.60
2022-10-09T21:20:56.737Z,20.50
2022-10-09T21:26:01.560Z,20.50
2022-10-09T21:31:09.467Z,20.50
2022-10-09T21:36:14.459Z,20.40
2022-10-09T21:41:19.515Z,20.40
2022-10-09T21:46:22.905Z,20.30
2022-10-09T21:51:26.246Z,20.30
2022-10-09T21:56:30.847Z,20.30
2022-10-09T22:01:34.175Z,20.20
2022-10-09T22:06:37.435Z,20.20
2022-10-09T22:11:42.003Z,20.20
2022-10-09T22:16:45.264Z,20.10
2022-10-09T22:21:49.616Z,20.10
2022-10-09T22:26:55.568Z,20.10
2022-10-09T22:31:58.827Z,20.10
2022-10-09T22:37:02.070Z,20.00
2022-10-09T22:42:06.832Z,20.10
2022-10-09T22:47:10.148Z,20.00
2022-10-09T22:52:13.436Z,20.00
2022-10-09T22:57:18.347Z,20.00
2022-10-09T23:02:21.570Z,20.00
2022-10-09T23:07:24.791Z,20.00
2022-10-09T23:12:29.487Z,19.90
2022-10-09T23:17:32.737Z,19.90
2022-10-09T23:22:35.962Z,19.90
2022-10-09T23:27:40.534Z,19.90
2022-10-09T23:32:43.902Z,19.90
2022-10-09T23:37:47.160Z,19.90
2022-10-09T23:42:52.209Z,19.90
2022-10-09T23:47:55.781Z,19.90
2022-10-09T23:52:59.021Z,19.80
2022-10-09T23:58:03.576Z,19.80
